Time;durP1;ratioP1;P1;durP2;ratioP2;P2;SDS_P1;SDS_P2;PMS_P1;PMS_P2;Temp;Humidity;BMP_temperature;BMP_pressure;BME280_temperature;BME280_humidity;BME280_pressure;Samples;Min_cycle;Max_cycle;Signal;HPM_P1;HPM_P2
2022/06/06 00:00:47;;;;;;;3.22;2.92;;;15.80;66.50;;;;;;5059396;28;20025;-75
2022/06/06 00:03:15;;;;;;;2.97;2.78;;;15.70;66.40;;;;;;5045204;28;20388;-74
2022/06/06 00:05:47;;;;;;;3.92;3.63;;;15.70;66.40;;;;;;5057593;28;20036;-74
2022/06/06 00:08:13;;;;;;;3.97;3.20;;;15.80;66.60;;;;;;5065035;28;20029;-74
2022/06/06 00:10:44;;;;;;;4.57;3.22;;;15.70;66.50;;;;;;5057880;28;20224;-74
2022/06/06 00:13:13;;;;;;;3.60;3.40;;;15.70;66.50;;;;;;5066215;28;20064;-74
2022/06/06 00:15:42;;;;;;;3.95;3.50;;;15.70;66.50;;;;;;5066474;28;20040;-74
2022/06/06 00:18:07;;;;;;;5.10;4.10;;;15.70;66.60;;;;;;5065799;28;20029;-74
2022/06/06 00:20:35;;;;;;;3.38;3.08;;;15.70;67.00;;;;;;5069865;28;20032;-74
2022/06/06 00:23:04;;;;;;;4.25;3.95;;;15.80;66.70;;;;;;5070428;28;20033;-73
2022/06/06 00:25:30;;;;;;;3.92;3.50;;;15.80;66.70;;;;;;5050300;28;20434;-74
2022/06/06 00:27:56;;;;;;;4.78;4.38;;;15.70;66.60;;;;;;5069979;28;20028;-75
2022/06/06 00:30:22;;;;;;;3.83;3.60;;;15.70;66.60;;;;;;5062035;28;20083;-74
2022/06/06 00:35:33;;;;;;;3.92;3.63;;;15.70;66.60;;;;;;5051522;28;20079;-75
2022/06/06 00:38:00;;;;;;;4.13;3.83;;;15.70;66.60;;;;;;5052151;28;20043;-75
2022/06/06 00:40:26;;;;;;;3.83;3.42;;;15.70;66.60;;;;;;5061574;28;20736;-75
2022/06/06 00:42:52;;;;;;;4.47;3.92;;;15.70;66.60;;;;;;5069119;28;20025;-74
2022/06/06 00:45:23;;;;;;;3.83;3.53;;;15.70;66.60;;;;;;5070230;28;20289;-75
2022/06/06 00:47:51;;;;;;;3.88;3.58;;;15.70;66.70;;;;;;5050834;28;20048;-75
2022/06/06 00:50:21;;;;;;;3.78;3.47;;;15.70;66.70;;;;;;5051910;28;20059;-73
2022/06/06 00:52:51;;;;;;;5.35;4.32;;;15.60;66.60;;;;;;5060687;28;20038;-74
2022/06/06 00:55:20;;;;;;;3.90;3.53;;;15.60;66.60;;;;;;5066739;28;20069;-77
2022/06/06 00:57:55;;;;;;;4.15;3.75;;;15.60;66.70;;;;;;5067687;28;20336;-75
2022/06/06 01:00:22;;;;;;;4.72;4.20;;;15.60;66.70;;;;;;5068263;28;20075;-75
2022/06/06 01:02:53;;;;;;;5.32;4.10;;;15.60;66.70;;;;;;5068475;28;20024;-75
2022/06/06 01:05:22;;;;;;;4.38;3.92;;;15.60;66.70;;;;;;5069205;28;20021;-75
2022/06/06 01:07:48;;;;;;;4.07;3.67;;;15.60;66.80;;;;;;5067623;28;20024;-74
2022/06/06 01:10:15;;;;;;;5.18;4.20;;;15.60;66.90;;;;;;5064766;28;20037;-76
2022/06/06 01:12:47;;;;;;;4.43;4.03;;;15.60;66.90;;;;;;5047774;28;20061;-75
2022/06/06 01:15:15;;;;;;;3.90;3.60;;;15.60;66.90;;;;;;5050165;28;20033;-75
2022/06/06 01:17:57;;;;;;;4.00;3.60;;;15.50;66.70;;;;;;5052709;28;20037;-74
2022/06/06 01:20:44;;;;;;;4.63;4.18;;;15.60;67.00;;;;;;5069275;28;20445;-77
2022/06/06 01:23:29;;;;;;;19.63;5.30;;;15.50;66.70;;;;;;5044411;28;20581;-76
2022/06/06 01:26:14;;;;;;;4.28;3.83;;;15.60;67.00;;;;;;5068586;28;20555;-75
2022/06/06 01:28:56;;;;;;;4.45;4.05;;;15.50;66.70;;;;;;5050532;28;20032;-74
2022/06/06 01:31:48;;;;;;;4.72;3.88;;;15.50;66.80;;;;;;5066114;28;20339;-75
2022/06/06 01:34:23;;;;;;;5.00;4.50;;;15.60;67.00;;;;;;5062263;28;20036;-75
2022/06/06 01:36:50;;;;;;;4.70;4.30;;;15.50;66.80;;;;;;5063228;28;20426;-75
2022/06/06 01:39:16;;;;;;;4.20;3.80;;;15.50;66.80;;;;;;5066955;28;20032;-76
2022/06/06 01:41:52;;;;;;;4.97;4.30;;;15.50;66.80;;;;;;5062991;28;20032;-76
2022/06/06 01:44:44;;;;;;;4.20;3.80;;;15.50;66.80;;;;;;5040207;28;20032;-74
2022/06/06 01:47:18;;;;;;;4.32;3.85;;;15.50;67.00;;;;;;5061302;28;20085;-74
2022/06/06 01:49:45;;;;;;;4.43;4.03;;;15.50;66.90;;;;;;5041668;28;20025;-76
2022/06/06 01:52:13;;;;;;;4.30;3.90;;;15.50;66.90;;;;;;5048788;28;20041;-76
2022/06/06 01:54:41;;;;;;;4.25;3.92;;;15.50;66.90;;;;;;5038430;28;20040;-75
2022/06/06 01:57:09;;;;;;;4.78;4.10;;;15.50;67.00;;;;;;5061873;28;20032;-75
2022/06/06 01:59:35;;;;;;;4.15;3.80;;;15.50;67.00;;;;;;5024503;28;20029;-75
2022/06/06 02:02:02;;;;;;;4.53;4.05;;;15.50;67.00;;;;;;5048496;28;20037;-76
2022/06/06 02:04:28;;;;;;;3.70;3.40;;;15.50;67.10;;;;;;5047819;28;20091;-75
2022/06/06 02:06:54;;;;;;;4.30;3.90;;;15.40;66.90;;;;;;5022319;28;20038;-75
2022/06/06 02:09:20;;;;;;;4.07;3.63;;;15.50;67.20;;;;;;5031773;28;20071;-76
2022/06/06 02:11:46;;;;;;;3.53;3.13;;;15.40;67.00;;;;;;5049955;28;20032;-76
2022/06/06 02:14:12;;;;;;;3.83;3.30;;;15.40;67.00;;;;;;5034148;28;20086;-76
2022/06/06 02:16:38;;;;;;;5.55;3.97;;;15.40;67.10;;;;;;5051017;28;20096;-75
2022/06/06 02:19:05;;;;;;;4.53;3.58;;;15.40;67.10;;;;;;5041746;28;20030;-74
2022/06/06 02:21:32;;;;;;;3.85;3.45;;;15.40;67.10;;;;;;5039608;28;20029;-74
2022/06/06 02:24:00;;;;;;;3.47;3.17;;;15.40;67.20;;;;;;5048180;28;20025;-74
2022/06/06 02:26:26;;;;;;;3.90;3.50;;;15.40;67.20;;;;;;5032493;28;20041;-74
2022/06/06 02:28:52;;;;;;;3.60;3.30;;;15.40;67.20;;;;;;5035942;28;20182;-76
2022/06/06 02:31:17;;;;;;;3.63;3.03;;;15.40;67.30;;;;;;5041871;28;20536;-75
2022/06/06 02:33:44;;;;;;;3.75;3.40;;;15.40;67.20;;;;;;5031335;28;20487;-75
2022/06/06 02:36:11;;;;;;;3.15;2.85;;;15.40;67.30;;;;;;5049175;28;20140;-75
2022/06/06 02:38:37;;;;;;;3.35;3.03;;;15.40;67.30;;;;;;5030267;28;20033;-74
2022/06/06 02:41:09;;;;;;;3.08;2.85;;;15.30;67.10;;;;;;5029039;28;20055;-74
2022/06/06 02:43:42;;;;;;;4.05;3.50;;;15.40;67.30;;;;;;5047208;28;20028;-74
2022/06/06 02:46:09;;;;;;;;;;;15.40;67.30;;;;;;5048082;28;20037;-74
2022/06/06 02:48:36;;;;;;;3.45;2.28;;;15.40;67.20;;;;;;5049940;28;19924;-74
2022/06/06 02:51:03;;;;;;;2.70;2.50;;;15.40;67.10;;;;;;5068281;28;20044;-76
2022/06/06 02:53:30;;;;;;;3.83;2.78;;;15.40;67.20;;;;;;5021811;28;20033;-76
2022/06/06 02:55:57;;;;;;;2.50;2.30;;;15.30;67.00;;;;;;5059557;28;20051;-76
2022/06/06 02:58:24;;;;;;;2.47;2.28;;;15.40;67.20;;;;;;5038754;28;20035;-77
2022/06/06 03:01:02;;;;;;;3.22;2.40;;;15.30;67.10;;;;;;5062877;28;20098;-76
2022/06/06 03:03:28;;;;;;;2.38;2.08;;;15.30;67.10;;;;;;5048208;28;20107;-76
2022/06/06 03:06:29;;;;;;;2.33;2.13;;;15.30;67.10;;;;;;5050097;28;20198;-76
2022/06/06 03:09:21;;;;;;;1.80;1.70;;;15.30;67.20;;;;;;5013468;28;20032;-76
2022/06/06 03:12:09;;;;;;;2.53;2.33;;;15.30;67.20;;;;;;5057866;28;20040;-75
2022/06/06 03:14:54;;;;;;;3.05;2.40;;;15.30;67.20;;;;;;5066310;28;20032;-75
2022/06/06 03:20:48;;;;;;;2.28;2.00;;;15.30;67.20;;;;;;5058068;28;20476;-76
2022/06/06 03:23:48;;;;;;;2.15;1.70;;;15.30;67.20;;;;;;5053959;28;20102;-75
2022/06/06 03:26:18;;;;;;;2.20;2.00;;;15.20;67.20;;;;;;5065061;28;20107;-76
2022/06/06 03:29:04;;;;;;;2.58;1.88;;;15.30;67.20;;;;;;5048796;28;20020;-75
2022/06/06 03:31:38;;;;;;;2.03;1.80;;;15.20;67.20;;;;;;5066845;28;20296;-76
2022/06/06 03:34:25;;;;;;;2.80;1.90;;;15.20;67.10;;;;;;5067411;28;20024;-76
2022/06/06 03:37:22;;;;;;;3.17;2.55;;;15.20;67.20;;;;;;5066012;28;20202;-76
2022/06/06 03:40:06;;;;;;;2.55;2.28;;;15.20;67.30;;;;;;5066789;28;20044;-76
2022/06/06 03:42:46;;;;;;;1.95;1.75;;;15.20;67.20;;;;;;5058024;28;20017;-75
2022/06/06 03:45:24;;;;;;;2.35;2.15;;;15.20;67.30;;;;;;5046328;28;20067;-75
2022/06/06 03:47:53;;;;;;;2.03;1.70;;;15.20;67.20;;;;;;5060995;28;20195;-76
2022/06/06 03:50:35;;;;;;;2.03;1.83;;;15.20;67.20;;;;;;5066546;28;20123;-75
2022/06/06 03:53:17;;;;;;;2.72;2.08;;;15.20;67.30;;;;;;5064174;28;20020;-75
2022/06/06 03:55:51;;;;;;;2.50;2.13;;;15.20;67.30;;;;;;5064693;28;20035;-75
2022/06/06 03:58:21;;;;;;;2.38;2.10;;;15.20;67.30;;;;;;5064612;28;20062;-75
2022/06/06 04:00:47;;;;;;;2.53;2.30;;;15.20;67.30;;;;;;5060760;28;20068;-74
2022/06/06 04:03:16;;;;;;;2.10;1.90;;;15.20;67.30;;;;;;5062560;28;20021;-75
2022/06/06 04:05:42;;;;;;;2.08;1.90;;;15.20;67.30;;;;;;5048179;28;20094;-74
2022/06/06 04:08:08;;;;;;;3.30;2.00;;;15.20;67.40;;;;;;5056994;28;20052;-75
2022/06/06 04:11:04;;;;;;;2.20;2.00;;;15.20;67.40;;;;;;5066028;28;20043;-75
2022/06/06 04:13:41;;;;;;;2.60;2.38;;;15.20;67.50;;;;;;5056035;28;20064;-75
2022/06/06 04:16:45;;;;;;;2.40;2.20;;;15.20;67.40;;;;;;5069553;28;20028;-75
2022/06/06 04:19:41;;;;;;;2.47;2.28;;;15.20;67.50;;;;;;5073176;28;20476;-75
2022/06/06 04:22:33;;;;;;;2.13;2.00;;;15.20;67.50;;;;;;5075974;28;20020;-76
2022/06/06 04:25:07;;;;;;;2.25;2.05;;;15.20;68.00;;;;;;5080906;28;20036;-76
2022/06/06 04:27:55;;;;;;;1.83;1.73;;;15.20;67.50;;;;;;5073574;28;20040;-75
2022/06/06 04:30:45;;;;;;;3.67;1.95;;;15.20;67.40;;;;;;5069757;28;20041;-76
2022/06/06 04:33:25;;;;;;;1.88;1.70;;;15.20;67.50;;;;;;5074409;28;20047;-75
2022/06/06 04:36:15;;;;;;;2.20;2.00;;;15.20;67.50;;;;;;5090011;28;20043;-75
2022/06/06 04:38:56;;;;;;;3.15;2.00;;;15.20;67.50;;;;;;5091367;28;20029;-75
2022/06/06 04:41:49;;;;;;;1.90;1.80;;;15.20;67.50;;;;;;5082190;28;20030;-76
2022/06/06 04:44:32;;;;;;;2.30;2.10;;;15.20;67.60;;;;;;5055396;28;20052;-75
2022/06/06 04:47:01;;;;;;;;;;;15.20;67.50;;;;;;5067675;28;20060;-74
2022/06/06 04:49:29;;;;;;;2.42;1.50;;;15.20;67.30;;;;;;5050704;28;19908;-76
2022/06/06 04:51:58;;;;;;;1.83;1.40;;;15.30;67.40;;;;;;5065373;28;20145;-75
2022/06/06 04:54:25;;;;;;;2.08;1.58;;;15.30;67.50;;;;;;5059648;28;20035;-76
2022/06/06 04:56:52;;;;;;;1.45;1.35;;;15.30;67.50;;;;;;5064992;28;20029;-75
2022/06/06 04:59:21;;;;;;;2.28;1.50;;;15.30;67.60;;;;;;5044746;28;20090;-78
2022/06/06 05:01:49;;;;;;;2.15;1.67;;;15.30;67.60;;;;;;5065647;28;20078;-75
2022/06/06 05:04:14;;;;;;;2.30;1.20;;;15.40;67.80;;;;;;5059921;28;20057;-77
2022/06/06 05:07:01;;;;;;;2.40;1.40;;;15.40;67.80;;;;;;5068958;28;20086;-75
2022/06/06 05:09:52;;;;;;;1.30;1.20;;;15.40;67.90;;;;;;5054920;28;20067;-75
2022/06/06 05:13:00;;;;;;;2.13;1.08;;;15.50;68.10;;;;;;5067314;28;20039;-74
2022/06/06 05:16:05;;;;;;;2.13;1.15;;;15.50;68.00;;;;;;5065459;28;20071;-75
2022/06/06 05:19:11;;;;;;;2.75;1.10;;;15.50;67.90;;;;;;5058727;28;20055;-75
2022/06/06 05:22:03;;;;;;;1.15;1.05;;;15.50;67.90;;;;;;5067108;28;20307;-74
2022/06/06 05:24:43;;;;;;;1.92;1.58;;;15.50;67.80;;;;;;5031630;28;20613;-75
2022/06/06 05:27:33;;;;;;;1.50;1.30;;;15.60;67.90;;;;;;5055415;28;20039;-75
2022/06/06 05:30:04;;;;;;;1.23;1.13;;;15.60;67.90;;;;;;5041475;28;20048;-75
2022/06/06 05:32:58;;;;;;;1.40;1.30;;;15.60;67.90;;;;;;5067974;28;20231;-76
2022/06/06 05:35:35;;;;;;;1.88;1.70;;;15.60;68.30;;;;;;5069016;28;20036;-76
2022/06/06 05:38:34;;;;;;;4.20;1.85;;;15.60;68.40;;;;;;5045830;28;20040;-75
2022/06/06 05:41:15;;;;;;;2.30;1.65;;;15.60;69.10;;;;;;5061186;28;20033;-74
2022/06/06 05:44:03;;;;;;;2.90;1.70;;;15.70;69.10;;;;;;5054055;28;20574;-76
2022/06/06 05:47:05;;;;;;;1.92;1.42;;;15.70;69.30;;;;;;5065568;28;20040;-75
2022/06/06 05:49:45;;;;;;;2.33;2.13;;;15.70;69.50;;;;;;5052342;28;20048;-77
2022/06/06 05:52:23;;;;;;;1.67;1.58;;;15.80;69.40;;;;;;5042954;28;20040;-81
2022/06/06 05:54:57;;;;;;;1.80;1.50;;;15.80;69.60;;;;;;5046796;28;20029;-81
2022/06/06 05:57:30;;;;;;;7.35;3.00;;;15.90;69.70;;;;;;5060750;28;20032;-80
2022/06/06 06:00:10;;;;;;;2.10;2.00;;;15.90;69.60;;;;;;5061238;28;20470;-81
2022/06/06 06:02:58;;;;;;;;;;;16.00;69.80;;;;;;5066589;28;20036;-79
2022/06/06 06:05:58;;;;;;;1.65;1.55;;;16.00;69.40;;;;;;5066928;28;19947;-78
2022/06/06 06:09:06;;;;;;;2.17;1.88;;;16.00;69.30;;;;;;5045720;28;20143;-78
2022/06/06 06:12:01;;;;;;;4.25;1.75;;;16.00;69.20;;;;;;5053721;28;20044;-78
2022/06/06 06:14:53;;;;;;;5.70;2.38;;;16.10;69.20;;;;;;5062530;28;20132;-78
2022/06/06 06:17:24;;;;;;;1.90;1.80;;;16.10;69.20;;;;;;5042495;28;20087;-80
2022/06/06 06:20:04;;;;;;;3.95;2.05;;;16.10;69.10;;;;;;5066923;28;20413;-80
2022/06/06 06:22:51;;;;;;;1.88;1.50;;;16.20;69.50;;;;;;5043673;28;20044;-77
2022/06/06 06:25:18;;;;;;;2.10;1.90;;;16.30;69.70;;;;;;5034611;28;20102;-78
2022/06/06 06:27:46;;;;;;;2.70;2.50;;;16.30;69.50;;;;;;5034427;28;20032;-76
2022/06/06 06:30:13;;;;;;;2.08;1.98;;;16.30;69.50;;;;;;5045490;28;20607;-76
2022/06/06 06:32:51;;;;;;;2.83;2.35;;;16.30;69.40;;;;;;5064081;28;20083;-76
2022/06/06 06:35:42;;;;;;;2.05;1.90;;;16.40;69.60;;;;;;5043397;28;20044;-79
2022/06/06 06:38:34;;;;;;;2.20;2.00;;;16.40;69.50;;;;;;5064698;28;20025;-78
2022/06/06 06:41:10;;;;;;;2.88;2.35;;;16.50;69.60;;;;;;5055184;28;20044;-78
2022/06/06 06:43:59;;;;;;;2.30;2.10;;;16.40;69.40;;;;;;5041500;28;20037;-77
2022/06/06 06:46:35;;;;;;;2.70;2.13;;;16.50;69.60;;;;;;5062062;28;20047;-76
2022/06/06 06:49:44;;;;;;;2.22;1.95;;;16.50;69.50;;;;;;5060852;28;20021;-77
2022/06/06 06:52:30;;;;;;;3.47;2.00;;;16.50;69.50;;;;;;5052961;28;20079;-78
2022/06/06 06:55:19;;;;;;;4.43;2.40;;;16.50;69.40;;;;;;5045834;28;20024;-75
2022/06/06 06:58:06;;;;;;;2.70;2.03;;;16.50;69.40;;;;;;5065072;28;20476;-78
2022/06/06 07:01:12;;;;;;;2.97;2.40;;;16.50;69.30;;;;;;5042605;28;20024;-74
2022/06/06 07:10:04;;;;;;;2.33;2.17;;;16.70;69.30;;;;;;5056565;28;20044;-81
2022/06/06 07:12:39;;;;;;;;;;;16.70;69.00;;;;;;5065722;28;20429;-83
2022/06/06 07:15:32;;;;;;;3.60;2.70;;;16.80;68.90;;;;;;5057808;28;19918;-89
2022/06/06 07:18:02;;;;;;;3.28;2.97;;;16.90;68.90;;;;;;5053480;28;20058;-91
2022/06/06 07:20:28;;;;;;;3.03;2.83;;;17.00;68.90;;;;;;5066028;28;20507;-75
2022/06/06 07:23:03;;;;;;;3.22;2.97;;;17.10;69.00;;;;;;5065438;28;20032;-73
2022/06/06 07:25:36;;;;;;;3.20;2.90;;;17.20;68.90;;;;;;5055443;28;20553;-75
2022/06/06 07:28:03;;;;;;;3.70;3.38;;;17.30;68.80;;;;;;5044608;28;20039;-74
2022/06/06 07:30:33;;;;;;;4.30;3.67;;;17.40;68.70;;;;;;5063772;28;20522;-75
2022/06/06 07:33:24;;;;;;;3.97;3.40;;;17.50;68.70;;;;;;5061958;28;20025;-74
2022/06/06 07:36:20;;;;;;;3.70;3.40;;;17.60;68.90;;;;;;5053215;28;20031;-73
2022/06/06 07:39:04;;;;;;;4.70;3.42;;;18.00;69.00;;;;;;5064791;28;20071;-75
2022/06/06 07:41:46;;;;;;;3.55;3.22;;;18.30;68.60;;;;;;5061869;28;20028;-75
2022/06/06 07:44:43;;;;;;;4.10;3.70;;;18.50;68.30;;;;;;5059006;28;20485;-75
2022/06/06 07:47:48;;;;;;;3.47;3.28;;;18.80;68.30;;;;;;5062539;28;20044;-76
2022/06/06 07:50:32;;;;;;;4.53;3.03;;;18.90;68.00;;;;;;5031282;28;20048;-75
2022/06/06 07:53:23;;;;;;;3.33;3.03;;;19.10;68.00;;;;;;5029159;28;20733;-75
2022/06/06 07:56:02;;;;;;;4.50;3.35;;;19.20;68.00;;;;;;5058869;28;20234;-78
2022/06/06 07:58:28;;;;;;;4.15;3.70;;;19.30;68.00;;;;;;5062138;28;20039;-76
2022/06/06 08:01:10;;;;;;;3.45;3.20;;;19.50;68.00;;;;;;5060083;28;20111;-76
2022/06/06 08:03:50;;;;;;;4.10;3.80;;;19.70;68.00;;;;;;5055994;28;20488;-76
2022/06/06 08:06:35;;;;;;;3.10;2.90;;;19.90;67.90;;;;;;5044258;28;20537;-76
2022/06/06 08:09:39;;;;;;;2.80;2.60;;;20.20;67.80;;;;;;5059944;28;20111;-76
2022/06/06 08:12:31;;;;;;;3.70;3.38;;;20.40;67.50;;;;;;5042831;28;20338;-76
2022/06/06 08:15:09;;;;;;;3.80;3.10;;;20.60;67.40;;;;;;5033996;28;20036;-75
2022/06/06 08:18:07;;;;;;;3.28;2.97;;;20.80;67.20;;;;;;5048450;28;20052;-76
2022/06/06 08:20:53;;;;;;;2.85;2.60;;;20.90;67.20;;;;;;5064483;28;20282;-76
2022/06/06 08:23:21;;;;;;;2.70;2.50;;;21.00;67.10;;;;;;5023852;28;20040;-74
2022/06/06 08:25:49;;;;;;;2.50;2.33;;;21.10;67.10;;;;;;5044996;28;20031;-76
2022/06/06 08:28:16;;;;;;;3.95;2.58;;;21.30;67.10;;;;;;5042358;28;20028;-75
2022/06/06 08:30:44;;;;;;;3.95;2.60;;;21.40;66.90;;;;;;5058973;28;20052;-76
2022/06/06 08:33:10;;;;;;;2.67;2.47;;;21.60;67.00;;;;;;5063799;28;20518;-75
2022/06/06 08:36:15;;;;;;;2.60;2.40;;;21.70;66.80;;;;;;5056525;28;20036;-77
2022/06/06 08:38:56;;;;;;;2.97;2.58;;;21.90;66.60;;;;;;5040638;28;20037;-76
2022/06/06 08:41:49;;;;;;;2.42;2.15;;;22.00;66.60;;;;;;5065495;28;20032;-75
2022/06/06 08:44:28;;;;;;;2.50;2.30;;;22.00;66.30;;;;;;5063405;28;20094;-77
2022/06/06 08:47:34;;;;;;;2.58;2.33;;;22.10;66.40;;;;;;5068676;28;20094;-76
2022/06/06 08:50:45;;;;;;;4.88;2.47;;;22.30;66.40;;;;;;5050613;28;20033;-77
2022/06/06 08:53:29;;;;;;;2.63;2.08;;;22.40;66.10;;;;;;5067382;28;20071;-76
2022/06/06 08:56:17;;;;;;;2.28;2.05;;;22.50;65.90;;;;;;5050678;28;20192;-76
2022/06/06 08:59:06;;;;;;;2.67;2.08;;;22.60;66.00;;;;;;5066998;28;20241;-76
2022/06/06 09:01:40;;;;;;;3.13;2.38;;;22.50;65.70;;;;;;5067605;28;20036;-76
2022/06/06 09:04:57;;;;;;;2.25;1.98;;;22.40;65.80;;;;;;5067968;28;20025;-75
2022/06/06 09:07:53;;;;;;;3.88;2.22;;;22.30;65.80;;;;;;5024460;28;20051;-75
2022/06/06 09:10:40;;;;;;;3.50;2.22;;;22.20;65.80;;;;;;5065831;28;20040;-76
2022/06/06 09:13:34;;;;;;;2.97;1.90;;;22.20;65.90;;;;;;5050180;28;20417;-75
2022/06/06 09:16:03;;;;;;;3.65;2.38;;;22.10;65.80;;;;;;5057579;28;20051;-75
2022/06/06 09:18:38;;;;;;;3.30;1.95;;;22.20;66.00;;;;;;5067426;28;20483;-75
2022/06/06 09:21:22;;;;;;;2.35;2.05;;;22.20;65.80;;;;;;5048181;28;20032;-74
2022/06/06 09:24:16;;;;;;;2.10;2.00;;;22.20;65.60;;;;;;5063915;28;20033;-74
2022/06/06 09:27:04;;;;;;;2.35;2.15;;;22.20;65.50;;;;;;5064218;28;20025;-74
2022/06/06 09:29:48;;;;;;;4.63;2.10;;;22.10;65.40;;;;;;5041700;28;20032;-74
2022/06/06 09:32:23;;;;;;;4.20;1.92;;;22.10;65.50;;;;;;5042296;28;20086;-75
2022/06/06 09:35:14;;;;;;;1.90;1.80;;;22.00;65.50;;;;;;5048041;28;20042;-74
2022/06/06 09:37:58;;;;;;;3.40;1.95;;;22.00;65.50;;;;;;5057612;28;20511;-75
2022/06/06 09:40:37;;;;;;;3.70;2.45;;;21.90;65.50;;;;;;5065856;28;20514;-74
2022/06/06 09:43:23;;;;;;;3.03;1.92;;;21.90;65.50;;;;;;5061461;28;20029;-75
2022/06/06 09:45:55;;;;;;;5.03;2.42;;;22.00;65.60;;;;;;5047123;28;20028;-76
2022/06/06 09:48:31;;;;;;;3.50;2.50;;;22.10;65.40;;;;;;5048412;28;20080;-74
2022/06/06 09:51:16;;;;;;;3.75;2.10;;;22.30;65.40;;;;;;5065945;28;20648;-73
2022/06/06 10:00:01;;;;;;;3.38;2.00;;;22.80;64.90;;;;;;5055531;28;20059;-74
2022/06/06 10:02:51;;;;;;;3.13;1.73;;;23.00;64.80;;;;;;5065578;28;20056;-75
2022/06/06 10:05:51;;;;;;;2.20;1.75;;;23.30;64.80;;;;;;5058944;28;20043;-76
2022/06/06 10:08:56;;;;;;;2.72;1.95;;;23.40;64.60;;;;;;5060317;28;20032;-74
2022/06/06 10:11:50;;;;;;;1.73;1.50;;;23.60;64.50;;;;;;5048498;28;20357;-73
2022/06/06 10:14:51;;;;;;;2.40;1.70;;;23.60;64.30;;;;;;5053424;28;20025;-74
2022/06/06 10:17:41;;;;;;;2.85;1.92;;;23.60;64.30;;;;;;5054155;28;20065;-74
2022/06/06 10:20:16;;;;;;;2.15;1.88;;;23.60;64.40;;;;;;5052216;28;20052;-74
2022/06/06 10:23:17;;;;;;;2.30;1.77;;;23.50;64.40;;;;;;5040268;28;20052;-73
2022/06/06 10:26:03;;;;;;;2.75;1.75;;;23.60;64.50;;;;;;5061622;28;20547;-73
2022/06/06 10:28:54;;;;;;;2.15;1.73;;;23.60;64.40;;;;;;5062868;28;20041;-74
2022/06/06 10:31:49;;;;;;;2.55;2.05;;;23.60;64.30;;;;;;5047474;28;20861;-74
2022/06/06 10:34:43;;;;;;;3.38;1.80;;;23.50;64.20;;;;;;5059544;28;20020;-73
2022/06/06 10:37:39;;;;;;;2.08;1.75;;;23.40;64.20;;;;;;5046322;28;20257;-73
2022/06/06 10:40:20;;;;;;;2.47;2.25;;;23.40;64.30;;;;;;5062957;28;20488;-74
2022/06/06 10:43:14;;;;;;;2.92;2.65;;;23.30;64.30;;;;;;5051711;28;20103;-77
2022/06/06 10:45:48;;;;;;;2.78;1.88;;;23.30;64.30;;;;;;5049606;28;20099;-74
2022/06/06 10:48:29;;;;;;;;;;;23.40;64.30;;;;;;5047014;28;20560;-74
2022/06/06 10:51:37;;;;;;;2.20;1.63;;;23.60;64.30;;;;;;5045769;28;19920;-74
2022/06/06 10:54:21;;;;;;;2.20;2.03;;;23.90;64.30;;;;;;5061140;28;20029;-74
2022/06/06 10:57:05;;;;;;;2.22;2.03;;;24.50;64.30;;;;;;5063775;28;20103;-75
2022/06/06 10:59:34;;;;;;;2.40;1.85;;;25.00;64.00;;;;;;5029247;28;20048;-75
2022/06/06 11:02:21;;;;;;;2.15;1.77;;;25.50;63.00;;;;;;5045643;28;20060;-74
2022/06/06 11:05:17;;;;;;;2.08;1.80;;;26.00;62.10;;;;;;5063613;28;20033;-73
2022/06/06 11:07:50;;;;;;;2.70;1.92;;;26.10;61.50;;;;;;5063654;28;20048;-74
2022/06/06 11:10:32;;;;;;;2.20;1.60;;;26.20;61.50;;;;;;5062167;28;20044;-76
2022/06/06 11:13:03;;;;;;;4.35;1.73;;;26.10;61.50;;;;;;5064321;28;20062;-75
2022/06/06 11:15:41;;;;;;;2.03;1.75;;;26.10;61.70;;;;;;5063664;28;20219;-76
2022/06/06 11:18:47;;;;;;;2.47;1.60;;;26.20;61.50;;;;;;5047950;28;20024;-75
2022/06/06 11:21:34;;;;;;;2.30;1.85;;;26.50;61.40;;;;;;5063590;28;20401;-74
2022/06/06 11:24:23;;;;;;;2.63;1.52;;;26.70;60.90;;;;;;5044389;28;20032;-76
2022/06/06 11:27:01;;;;;;;1.88;1.60;;;26.90;60.50;;;;;;5055360;28;20036;-75
2022/06/06 11:29:35;;;;;;;2.15;1.95;;;27.10;60.40;;;;;;5060094;28;20048;-74
2022/06/06 11:32:39;;;;;;;2.30;1.80;;;27.30;60.20;;;;;;5062238;28;20529;-74
2022/06/06 11:35:12;;;;;;;1.83;1.50;;;27.50;59.70;;;;;;5056113;28;20036;-74
2022/06/06 11:37:47;;;;;;;1.60;1.50;;;27.80;59.70;;;;;;5065180;28;20099;-75
2022/06/06 11:40:27;;;;;;;2.28;1.73;;;28.00;59.30;;;;;;5064672;28;20551;-76
2022/06/06 11:43:20;;;;;;;2.40;1.58;;;28.40;58.60;;;;;;5046019;28;20036;-74
2022/06/06 11:46:12;;;;;;;2.17;1.98;;;28.70;58.00;;;;;;5051722;28;20454;-73
2022/06/06 11:48:57;;;;;;;1.83;1.73;;;28.90;57.70;;;;;;5061101;28;20048;-75
2022/06/06 11:51:44;;;;;;;1.98;1.73;;;28.90;57.60;;;;;;5041116;28;20202;-73
2022/06/06 11:54:25;;;;;;;2.80;1.45;;;29.10;57.30;;;;;;5058040;28;20112;-75
2022/06/06 11:57:27;;;;;;;2.33;1.50;;;29.20;57.10;;;;;;5063396;28;20391;-75
2022/06/06 12:00:14;;;;;;;3.28;1.73;;;29.30;56.70;;;;;;5045953;28;20134;-74
2022/06/06 12:02:59;;;;;;;2.15;1.40;;;29.50;56.40;;;;;;5045406;28;20043;-75
2022/06/06 12:06:03;;;;;;;1.75;1.65;;;29.70;56.50;;;;;;5055212;28;20028;-78
2022/06/06 12:08:44;;;;;;;2.35;1.50;;;29.70;56.00;;;;;;5035674;28;20028;-77
2022/06/06 12:11:40;;;;;;;2.88;2.13;;;29.80;56.00;;;;;;5053396;28;20131;-74
2022/06/06 12:14:47;;;;;;;1.50;1.40;;;29.90;55.80;;;;;;5057500;28;20501;-77
2022/06/06 12:17:27;;;;;;;2.03;1.25;;;29.90;55.60;;;;;;5072817;28;20025;-76
2022/06/06 12:20:11;;;;;;;2.95;1.60;;;29.90;55.70;;;;;;5059274;28;20039;-76
2022/06/06 12:23:14;;;;;;;2.28;1.55;;;29.90;55.60;;;;;;5072812;28;20081;-76
2022/06/06 12:26:10;;;;;;;1.75;1.60;;;30.00;55.30;;;;;;5077175;28;20440;-77
2022/06/06 12:28:51;;;;;;;2.00;1.80;;;30.20;55.10;;;;;;5085341;28;20059;-76
2022/06/06 12:31:32;;;;;;;1.60;1.50;;;30.50;54.80;;;;;;5072433;28;20048;-75
2022/06/06 12:34:16;;;;;;;1.25;1.17;;;30.80;54.10;;;;;;5067445;28;20032;-76
2022/06/06 12:36:56;;;;;;;1.85;1.65;;;31.10;53.50;;;;;;5085795;28;20114;-77
2022/06/06 12:39:33;;;;;;;2.35;1.58;;;31.10;53.50;;;;;;5081555;28;20656;-76
2022/06/06 12:42:22;;;;;;;1.48;1.20;;;31.00;53.30;;;;;;5082713;28;20032;-75
2022/06/06 12:45:02;;;;;;;1.83;1.40;;;31.10;53.40;;;;;;5084556;28;20050;-77
2022/06/06 12:47:34;;;;;;;3.80;1.80;;;31.40;52.90;;;;;;5051835;28;20108;-76
2022/06/06 12:50:23;;;;;;;;;;;31.60;52.50;;;;;;5079004;28;20045;-78
2022/06/06 12:53:06;;;;;;;1.25;1.15;;;31.50;52.70;;;;;;5080056;28;19913;-77
2022/06/06 12:55:55;;;;;;;;;;;31.30;52.70;;;;;;5048826;28;20037;-75
2022/06/06 12:58:38;;;;;;;1.75;1.30;;;31.00;53.20;;;;;;5081945;28;19986;-76
2022/06/06 13:01:37;;;;;;;1.63;1.52;;;30.80;54.00;;;;;;5082464;28;20034;-76
2022/06/06 13:04:22;;;;;;;1.83;1.40;;;30.60;53.40;;;;;;5074451;28;20071;-75
2022/06/06 13:07:04;;;;;;;1.30;1.20;;;30.50;53.70;;;;;;5066401;28;20036;-75
2022/06/06 13:09:58;;;;;;;1.67;1.48;;;30.40;53.60;;;;;;5078804;28;20037;-75
2022/06/06 13:13:08;;;;;;;1.67;1.10;;;30.40;53.60;;;;;;5077281;28;20024;-75
2022/06/06 13:15:46;;;;;;;2.00;1.60;;;30.40;53.60;;;;;;5022032;28;20044;-76
2022/06/06 13:18:29;;;;;;;2.30;1.38;;;30.30;53.50;;;;;;5065829;28;20033;-75
2022/06/06 13:20:55;;;;;;;1.67;1.25;;;30.30;53.50;;;;;;5062811;28;20032;-77
2022/06/06 13:23:39;;;;;;;1.17;1.08;;;30.40;53.50;;;;;;5077712;28;20551;-74
2022/06/06 13:26:35;;;;;;;1.67;1.30;;;30.50;53.20;;;;;;5068648;28;20064;-75
2022/06/06 13:29:01;;;;;;;1.48;1.38;;;30.60;53.00;;;;;;5050271;28;20041;-76
2022/06/06 13:31:57;;;;;;;1.88;1.20;;;30.70;52.90;;;;;;5067523;28;20115;-76
2022/06/06 13:35:01;;;;;;;1.70;1.10;;;30.80;52.60;;;;;;5046431;28;20036;-74
2022/06/06 13:37:54;;;;;;;1.65;1.55;;;30.90;52.30;;;;;;5065352;28;20579;-75
2022/06/06 13:40:42;;;;;;;3.05;1.05;;;31.00;52.30;;;;;;5060921;28;20467;-79
2022/06/06 13:43:35;;;;;;;1.98;1.30;;;31.00;52.20;;;;;;5043339;28;20074;-76
2022/06/06 13:46:26;;;;;;;1.95;1.27;;;31.10;52.00;;;;;;5048598;28;20037;-77
2022/06/06 13:49:04;;;;;;;1.30;1.20;;;31.20;51.90;;;;;;5047691;28;20080;-75
2022/06/06 13:51:51;;;;;;;1.20;1.10;;;31.30;51.70;;;;;;5058324;28;20360;-75
2022/06/06 13:54:26;;;;;;;3.67;1.05;;;31.30;51.50;;;;;;5061835;28;20500;-75
2022/06/06 13:57:18;;;;;;;2.45;1.23;;;31.30;51.30;;;;;;5051939;28;20060;-74
2022/06/06 14:00:02;;;;;;;1.30;1.10;;;31.40;51.30;;;;;;5060662;28;20069;-75
2022/06/06 14:02:41;;;;;;;2.00;0.90;;;31.50;51.10;;;;;;5063356;28;20056;-74
2022/06/06 14:05:28;;;;;;;0.98;0.88;;;31.50;50.60;;;;;;5038363;28;20039;-76
2022/06/06 14:08:01;;;;;;;2.08;1.15;;;31.60;50.50;;;;;;5068766;28;20469;-74
2022/06/06 14:10:43;;;;;;;1.10;0.98;;;31.60;50.40;;;;;;5059121;28;20056;-75
2022/06/06 14:13:31;;;;;;;1.30;0.85;;;31.70;50.20;;;;;;5070040;28;20302;-74
2022/06/06 14:15:58;;;;;;;1.60;1.10;;;31.70;50.20;;;;;;5067068;28;20139;-75
2022/06/06 14:18:34;;;;;;;1.13;1.02;;;31.80;50.20;;;;;;5049858;28;20535;-76